Time;durP1;ratioP1;P1;durP2;ratioP2;P2;SDS_P1;SDS_P2;PMS_P1;PMS_P2;Temp;Humidity;BMP_temperature;BMP_pressure;BME280_temperature;BME280_humidity;BME280_pressure;Samples;Min_cycle;Max_cycle;Signal;HPM_P1;HPM_P2
2021/09/29 00:01:56;;;;;;;14.07;5.85;;;;;;;9.13;98.71;144501.39;1834369;77;22133;-78
2021/09/29 00:04:50;;;;;;;13.22;6.33;;;;;;;9.11;98.79;144497.66;1835365;77;22124;-66
2021/09/29 00:07:43;;;;;;;14.47;6.12;;;;;;;9.10;98.77;144493.88;1835024;77;22149;-74
2021/09/29 00:10:24;;;;;;;10.38;6.12;;;;;;;9.08;98.87;144488.86;1834207;77;22616;-64
2021/09/29 00:12:59;;;;;;;9.43;5.35;;;;;;;9.09;98.87;144491.39;1835168;77;22129;-68
2021/09/29 00:15:55;;;;;;;13.38;5.80;;;;;;;9.08;98.80;144490.16;1853817;77;22159;-62
2021/09/29 00:18:50;;;;;;;8.05;4.90;;;;;;;9.03;98.92;144476.33;1835145;77;22133;-67
2021/09/29 00:21:25;;;;;;;17.87;5.60;;;;;;;9.04;99.05;144478.87;1843469;77;22120;-69
2021/09/29 00:24:00;;;;;;;15.23;5.95;;;;;;;8.99;99.05;144467.58;1835075;77;22570;-73
2021/09/29 00:26:54;;;;;;;11.20;5.45;;;;;;;8.96;99.10;144460.08;1853679;77;22574;-69
2021/09/29 00:29:39;;;;;;;13.78;5.35;;;;;;;8.93;99.23;144451.28;1834408;77;22177;-69
2021/09/29 00:32:10;;;;;;;19.95;6.37;;;;;;;8.93;99.41;144452.58;1848333;77;22139;-63
2021/09/29 00:35:05;;;;;;;10.00;6.35;;;;;;;8.98;99.38;144463.81;1853612;77;22131;-56
2021/09/29 00:37:46;;;;;;;15.83;6.08;;;;;;;9.00;99.31;144468.83;1834472;77;22152;-75
2021/09/29 00:40:27;;;;;;;14.25;5.70;;;;;;;9.04;99.21;144478.87;1853625;77;22137;-70
2021/09/29 00:43:02;;;;;;;10.85;5.62;;;;;;;8.99;99.09;144467.58;1835043;77;22188;-56
2021/09/29 00:45:57;;;;;;;12.10;5.22;;;;;;;9.00;99.14;144468.83;1835043;77;22164;-66
2021/09/29 00:48:37;;;;;;;12.40;5.53;;;;;;;9.04;99.11;144478.87;1834373;77;22136;-67
2021/09/29 00:51:13;;;;;;;13.62;6.28;;;;;;;9.07;98.97;144486.38;1835071;77;22128;-63
2021/09/29 00:54:08;;;;;;;14.38;6.17;;;;;;;9.08;98.72;144488.86;1835169;77;22132;-71
2021/09/29 00:56:43;;;;;;;15.10;5.78;;;;;;;9.05;98.61;144481.34;1819751;77;38474;-61
2021/09/29 00:59:18;;;;;;;14.15;6.20;;;;;;;9.04;98.59;144478.87;1854802;77;22218;-70
2021/09/29 01:02:20;;;;;;;16.45;6.40;;;;;;;9.04;98.77;144478.87;1855934;77;22246;-55
2021/09/29 01:04:54;;;;;;;10.28;6.10;;;;;;;9.02;98.64;144473.84;1821645;77;27981;-55
2021/09/29 01:08:09;;;;;;;13.18;5.40;;;;;;;9.04;98.73;144478.87;1835615;77;22633;-70
2021/09/29 01:11:20;;;;;;;12.90;6.15;;;;;;;9.05;98.70;144482.59;1835664;77;22214;-63
2021/09/29 01:14:38;;;;;;;12.70;5.55;;;;;;;9.03;98.66;144476.33;1847690;77;22666;-80
2021/09/29 01:17:17;;;;;;;8.80;6.00;;;;;;;9.02;98.62;144473.84;1837935;77;28190;-75
2021/09/29 01:20:00;;;;;;;11.50;5.22;;;;;;;9.09;98.50;144491.39;1835202;77;22547;-66
2021/09/29 01:23:17;;;;;;;11.70;5.47;;;;;;;9.11;98.31;144496.41;1835022;77;22163;-69
2021/09/29 01:26:06;;;;;;;11.78;5.78;;;;;;;9.10;98.10;144493.88;1835147;77;22141;-62
2021/09/29 01:29:14;;;;;;;9.38;5.28;;;;;;;9.08;97.91;144488.86;1835169;77;22185;-67
2021/09/29 01:31:57;;;;;;;8.93;5.08;;;;;;;9.03;97.80;144476.33;1837911;77;27997;-71
2021/09/29 01:34:57;;;;;;;9.03;5.30;;;;;;;9.03;97.56;144476.33;1834250;77;22192;-66
2021/09/29 01:37:58;;;;;;;9.93;5.28;;;;;;;8.96;97.71;144458.83;1834253;77;22168;-64
2021/09/29 01:40:52;;;;;;;8.60;5.37;;;;;;;8.96;97.67;144458.83;1835059;77;22140;-72
2021/09/29 01:43:53;;;;;;;10.80;5.72;;;;;;;8.98;97.60;144463.81;1853690;77;22252;-68
2021/09/29 01:46:47;;;;;;;11.68;6.03;;;;;;;8.99;97.24;144466.34;1835199;77;22591;-61
2021/09/29 01:49:50;;;;;;;8.73;5.53;;;;;;;8.95;97.11;144456.30;1834271;77;22632;-73
2021/09/29 01:52:25;;;;;;;9.75;5.80;;;;;;;8.82;97.15;144426.23;1853651;77;22566;-69
2021/09/29 01:55:19;;;;;;;10.40;6.37;;;;;;;8.72;97.35;144399.94;1835073;77;22129;-67
2021/09/29 01:57:55;;;;;;;11.60;6.45;;;;;;;8.56;97.89;144362.38;1835199;77;22207;-71
2021/09/29 02:00:30;;;;;;;9.00;5.30;;;;;;;8.50;98.13;144346.08;1835198;77;22188;-65
2021/09/29 02:03:24;;;;;;;10.45;6.75;;;;;;;8.43;98.45;144329.83;1835304;77;22550;-57
2021/09/29 02:05:59;;;;;;;13.80;7.47;;;;;;;8.42;98.68;144327.30;1854064;77;22135;-64
2021/09/29 02:08:34;;;;;;;10.03;6.97;;;;;;;8.43;98.84;144331.08;1819727;77;28422;-69
2021/09/29 02:11:09;;;;;;;7.83;5.60;;;;;;;8.47;98.83;144339.81;1853599;77;22128;-68
2021/09/29 02:13:44;;;;;;;11.55;6.03;;;;;;;8.47;98.83;144341.11;1834983;77;22245;-67
2021/09/29 02:16:18;;;;;;;9.63;5.70;;;;;;;8.46;98.93;144337.34;1853683;77;22127;-66
2021/09/29 02:19:00;;;;;;;9.43;6.20;;;;;;;8.47;98.88;144341.11;1853614;77;22582;-69
2021/09/29 02:21:56;;;;;;;7.80;4.80;;;;;;;8.46;98.63;144338.58;1835065;77;22132;-65
2021/09/29 02:24:31;;;;;;;7.30;4.33;;;;;;;8.39;98.56;144321.05;1853660;77;22588;-65
2021/09/29 02:27:31;;;;;;;8.60;3.72;;;;;;;8.36;98.66;144313.48;1834367;77;22193;-77
2021/09/29 02:30:25;;;;;;;6.70;4.17;;;;;;;8.32;98.67;144303.50;1835142;77;22161;-75
2021/09/29 02:33:06;;;;;;;9.13;4.17;;;;;;;8.29;98.71;144294.72;1834770;77;22156;-69
2021/09/29 02:36:01;;;;;;;8.10;4.10;;;;;;;8.30;98.90;144297.25;1840672;77;22630;-68
2021/09/29 02:38:37;;;;;;;9.73;4.37;;;;;;;8.29;98.82;144294.72;1835368;77;22124;-61
2021/09/29 02:41:13;;;;;;;8.40;3.83;;;;;;;8.16;98.86;144264.66;1853966;77;22119;-58
2021/09/29 02:43:49;;;;;;;7.83;3.80;;;;;;;8.12;99.15;144253.44;1819550;77;28450;-75
2021/09/29 02:46:43;;;;;;;6.37;3.98;;;;;;;8.18;99.11;144269.67;1853612;77;22131;-62
2021/09/29 02:49:18;;;;;;;8.28;3.87;;;;;;;8.16;99.01;144263.42;1835137;77;22570;-60
2021/09/29 02:51:54;;;;;;;6.33;3.90;;;;;;;8.10;98.99;144248.41;1835183;77;22555;-67
2021/09/29 02:54:48;;;;;;;7.35;4.30;;;;;;;7.97;99.17;144218.38;1835205;77;22124;-66
2021/09/29 02:57:23;;;;;;;9.63;3.85;;;;;;;7.92;99.43;144204.61;1853747;77;22119;-68
2021/09/29 02:59:58;;;;;;;6.08;3.65;;;;;;;7.92;99.54;144205.86;1853683;77;22127;-68
2021/09/29 03:02:33;;;;;;;8.35;3.80;;;;;;;7.94;99.54;144210.87;1835145;77;22156;-70
2021/09/29 03:05:09;;;;;;;6.97;3.58;;;;;;;8.00;99.41;144225.88;1835116;77;22132;-71
2021/09/29 03:08:05;;;;;;;7.75;3.80;;;;;;;8.04;99.02;144235.91;1853824;77;22210;-74
2021/09/29 03:10:58;;;;;;;5.47;3.30;;;;;;;7.96;98.79;144215.89;1819605;77;28011;-56
2021/09/29 03:13:33;;;;;;;6.12;3.62;;;;;;;7.92;98.92;144205.86;1835109;77;22215;-69
2021/09/29 03:16:08;;;;;;;6.83;3.67;;;;;;;7.89;98.83;144198.36;1853688;77;22160;-64
2021/09/29 03:18:44;;;;;;;6.03;3.45;;;;;;;7.88;98.79;144195.83;1835021;77;22592;-68
2021/09/29 03:21:19;;;;;;;7.92;3.60;;;;;;;7.83;98.88;144183.31;1894509;74;27843;-64
2021/09/29 03:24:18;;;;;;;5.00;3.47;;;;;;;7.84;98.83;144185.84;1835173;77;22132;-68
2021/09/29 03:26:50;;;;;;;5.65;3.42;;;;;;;7.80;98.97;144175.81;1835176;77;22165;-70
2021/09/29 03:33:33;;;;;;;6.97;3.37;;;;;;;7.74;98.99;144160.81;1835596;77;22124;-62
2021/09/29 03:36:27;;;;;;;7.30;4.05;;;;;;;7.67;99.13;144143.28;1835599;77;22129;-64
2021/09/29 03:39:21;;;;;;;5.70;3.42;;;;;;;7.60;99.40;144127.00;1836023;77;22124;-59
2021/09/29 03:42:04;;;;;;;5.95;3.55;;;;;;;7.56;99.58;144118.27;1835321;77;22169;-56
2021/09/29 03:44:59;;;;;;;10.65;3.45;;;;;;;7.54;99.74;144112.00;1836278;77;22562;-55
2021/09/29 03:47:42;;;;;;;7.28;3.80;;;;;;;7.55;99.81;144115.73;1835712;77;22152;-60
2021/09/29 03:50:17;;;;;;;5.92;4.20;;;;;;;7.53;99.84;144110.77;1835456;77;22132;-68
2021/09/29 03:53:17;;;;;;;7.55;4.92;;;;;;;7.52;99.92;144108.23;1834388;77;22192;-66
2021/09/29 03:55:52;;;;;;;7.72;5.15;;;;;;;7.53;99.95;144110.77;1853741;77;22123;-60
2021/09/29 03:59:05;;;;;;;9.55;5.10;;;;;;;7.49;99.96;144099.50;1845788;77;22219;-76
2021/09/29 04:01:46;;;;;;;8.48;5.25;;;;;;;7.52;100.00;144107.00;1834398;77;22181;-67
2021/09/29 04:04:21;;;;;;;10.75;5.87;;;;;;;7.56;100.00;144118.27;1835368;77;22129;-66
2021/09/29 04:07:14;;;;;;;11.50;5.37;;;;;;;7.63;99.84;144133.25;1853691;77;22131;-65
2021/09/29 04:09:55;;;;;;;9.50;5.85;;;;;;;7.64;99.75;144135.78;1834209;77;22152;-64
2021/09/29 04:12:49;;;;;;;11.38;6.33;;;;;;;7.64;99.71;144135.78;1835003;77;22140;-71
2021/09/29 04:15:25;;;;;;;12.03;8.10;;;;;;;7.65;99.61;144138.28;1835068;77;22156;-71
2021/09/29 04:18:24;;;;;;;11.63;7.97;;;;;;;7.61;99.56;144130.78;1853525;77;22189;-64
2021/09/29 04:21:00;;;;;;;11.63;7.37;;;;;;;7.57;99.58;144120.75;1853644;77;22128;-65
2021/09/29 04:23:39;;;;;;;10.48;7.72;;;;;;;7.60;99.74;144127.00;1854165;77;22158;-70
2021/09/29 04:26:33;;;;;;;13.75;8.20;;;;;;;7.66;99.68;144140.75;1835485;77;22180;-65
2021/09/29 04:29:27;;;;;;;14.85;8.93;;;;;;;7.69;99.60;144149.55;1834915;77;22132;-68
2021/09/29 04:32:04;;;;;;;11.65;8.55;;;;;;;7.70;99.41;144152.03;1835062;77;22152;-74
2021/09/29 04:34:57;;;;;;;15.38;9.03;;;;;;;7.73;99.30;144158.28;1853759;77;22187;-70
2021/09/29 04:37:32;;;;;;;12.90;8.55;;;;;;;7.74;99.29;144162.06;1835416;77;22129;-59
2021/09/29 04:40:09;;;;;;;17.20;9.90;;;;;;;7.82;99.17;144180.83;1837046;77;22153;-59
2021/09/29 04:43:08;;;;;;;16.55;10.72;;;;;;;7.83;98.93;144184.55;1855637;77;22140;-55
2021/09/29 04:45:44;;;;;;;17.27;10.15;;;;;;;7.83;98.73;144183.31;1853537;77;22131;-71
2021/09/29 04:48:19;;;;;;;14.33;10.08;;;;;;;7.83;98.75;144183.31;1835006;77;22164;-67
2021/09/29 04:50:53;;;;;;;16.27;9.20;;;;;;;7.75;98.69;144163.30;1830840;77;22119;-59
2021/09/29 04:53:34;;;;;;;20.68;10.35;;;;;;;7.70;98.78;144150.78;1817863;77;22196;-72
2021/09/29 04:56:12;;;;;;;21.20;11.78;;;;;;;7.73;98.92;144158.28;1817418;77;22638;-69
2021/09/29 04:59:05;;;;;;;21.65;12.55;;;;;;;7.82;98.86;144180.83;1821489;77;22190;-61
2021/09/29 05:02:10;;;;;;;16.30;11.85;;;;;;;7.82;98.24;144180.83;1815791;77;22606;-69
2021/09/29 05:04:51;;;;;;;18.27;10.53;;;;;;;7.72;98.29;144155.80;1833009;77;28040;-70
2021/09/29 05:07:26;;;;;;;20.40;12.30;;;;;;;7.66;98.52;144140.75;1839594;77;22244;-69
2021/09/29 05:10:05;;;;;;;19.62;11.85;;;;;;;7.67;98.67;144143.28;1819355;77;22151;-69
2021/09/29 05:12:39;;;;;;;17.77;10.53;;;;;;;7.75;98.87;144163.30;1817305;77;22169;-80
2021/09/29 05:15:33;;;;;;;18.25;11.30;;;;;;;7.90;98.53;144200.84;1820305;77;22180;-67
2021/09/29 05:18:10;;;;;;;15.43;11.18;;;;;;;7.90;97.59;144200.84;1834896;77;22169;-60
2021/09/29 05:21:03;;;;;;;22.02;11.48;;;;;;;7.89;97.74;144198.36;1834934;77;22157;-64
2021/09/29 05:23:40;;;;;;;21.25;11.85;;;;;;;7.87;97.36;144192.09;1853604;77;22132;-63
2021/09/29 05:26:33;;;;;;;17.85;10.13;;;;;;;7.81;97.13;144178.30;1853578;77;22168;-68
2021/09/29 05:29:11;;;;;;;16.55;11.30;;;;;;;7.76;97.19;144165.78;1854133;77;22139;-70
2021/09/29 05:31:46;;;;;;;19.00;11.53;;;;;;;7.74;97.47;144160.81;1835033;77;22132;-60
2021/09/29 05:34:46;;;;;;;21.55;10.48;;;;;;;7.85;97.19;144188.33;1853276;77;22191;-71
2021/09/29 05:37:20;;;;;;;20.92;10.00;;;;;;;7.90;96.64;144200.84;1852379;77;22259;-63
2021/09/29 05:40:15;;;;;;;20.35;10.55;;;;;;;7.98;96.35;144220.84;1833846;77;22219;-67
2021/09/29 05:43:09;;;;;;;23.35;10.68;;;;;;;8.05;95.82;144238.37;1834177;77;22156;-67
2021/09/29 05:46:03;;;;;;;16.67;10.30;;;;;;;8.15;95.32;144262.17;1834635;77;22132;-58
2021/09/29 05:48:59;;;;;;;17.35;9.15;;;;;;;8.58;94.16;144366.16;1824957;77;28058;-59
2021/09/29 05:51:34;;;;;;;15.13;9.18;;;;;;;8.93;91.75;144451.28;1853402;77;22192;-62
2021/09/29 05:54:10;;;;;;;16.20;8.73;;;;;;;9.47;90.93;144584.11;1819153;77;28000;-59
2021/09/29 05:56:46;;;;;;;19.82;8.28;;;;;;;10.08;88.24;144734.52;1853521;77;22123;-66
2021/09/29 05:59:27;;;;;;;14.85;7.47;;;;;;;10.58;86.15;144857.47;1834095;77;22209;-63
2021/09/29 06:02:21;;;;;;;17.55;7.65;;;;;;;11.83;80.73;145163.66;1853512;77;22135;-67
2021/09/29 06:04:56;;;;;;;26.20;7.80;;;;;;;12.57;78.51;145345.80;1835029;77;22124;-63
2021/09/29 06:07:50;;;;;;;13.05;6.85;;;;;;;14.10;70.70;145721.67;1853511;77;22159;-63
2021/09/29 06:10:25;;;;;;;13.98;6.40;;;;;;;15.11;66.11;145968.31;1853562;77;22208;-69
2021/09/29 06:12:59;;;;;;;14.68;6.58;;;;;;;15.61;62.63;146091.70;1853667;77;22155;-66
2021/09/29 06:15:34;;;;;;;11.50;6.25;;;;;;;16.09;59.17;146210.14;1835108;77;22132;-68
2021/09/29 06:18:29;;;;;;;14.85;6.95;;;;;;;16.20;59.43;146237.83;1853574;77;22156;-61
2021/09/29 06:21:07;;;;;;;10.95;6.47;;;;;;;16.48;56.63;146307.13;1834840;77;22155;-61
2021/09/29 06:24:01;;;;;;;15.80;7.40;;;;;;;16.78;55.62;146379.02;1819463;77;27978;-64
2021/09/29 06:26:56;;;;;;;15.28;5.60;;;;;;;16.82;55.25;146390.37;1848692;77;22226;-65
2021/09/29 06:29:47;;;;;;;10.58;5.97;;;;;;;16.99;55.12;146431.94;1834975;77;22136;-58
2021/09/29 06:32:23;;;;;;;14.98;5.92;;;;;;;17.70;53.53;146607.19;1853617;77;20099;-68
2021/09/29 06:34:59;;;;;;;14.28;5.58;;;;;;;18.36;50.92;146769.97;1853626;77;22169;-64
2021/09/29 06:37:39;;;;;;;15.98;6.20;;;;;;;17.96;50.76;146670.30;1819361;77;28440;-66
2021/09/29 06:40:38;;;;;;;17.42;6.22;;;;;;;17.90;50.29;146655.17;1853544;77;22213;-67
2021/09/29 06:43:14;;;;;;;17.02;6.47;;;;;;;17.41;51.30;146534.08;1837785;77;28121;-66
2021/09/29 06:45:48;;;;;;;15.05;6.15;;;;;;;17.11;52.08;146462.19;1853619;77;22132;-65
2021/09/29 06:48:32;;;;;;;15.30;5.20;;;;;;;17.34;52.69;146517.67;1834144;77;22155;-67
2021/09/29 06:51:08;;;;;;;13.78;4.83;;;;;;;17.20;53.01;146482.36;1825877;77;22187;-65
2021/09/29 06:53:42;;;;;;;12.90;5.72;;;;;;;17.03;52.62;146442.03;1853519;77;22123;-73
2021/09/29 06:56:17;;;;;;;12.28;5.00;;;;;;;16.59;53.49;146333.63;1853535;77;22123;-63
2021/09/29 06:58:53;;;;;;;13.10;5.95;;;;;;;16.61;53.75;146338.66;1837802;77;28225;-71
2021/09/29 07:01:29;;;;;;;11.85;5.87;;;;;;;16.33;53.56;146269.33;1819378;77;27983;-70
2021/09/29 07:04:23;;;;;;;10.60;5.05;;;;;;;16.13;54.68;146220.23;1834993;77;22136;-67
2021/09/29 07:06:58;;;;;;;7.35;4.75;;;;;;;16.56;53.71;146326.02;1834992;77;22125;-66
2021/09/29 07:09:36;;;;;;;7.62;4.70;;;;;;;17.53;51.73;146565.61;1834957;77;22170;-68
2021/09/29 07:12:11;;;;;;;12.60;4.62;;;;;;;18.50;50.54;146802.81;1843437;77;22124;-65
2021/09/29 07:14:47;;;;;;;9.95;4.15;;;;;;;19.14;47.72;146960.61;1834762;77;22169;-63
2021/09/29 07:17:26;;;;;;;6.90;4.28;;;;;;;18.43;49.06;146787.63;1834997;77;22124;-64
2021/09/29 07:19:59;;;;;;;6.12;4.00;;;;;;;18.45;49.08;146791.44;1834985;77;22565;-67
2021/09/29 07:22:59;;;;;;;9.53;4.20;;;;;;;19.10;45.46;146951.75;1834758;77;22155;-61
2021/09/29 07:25:54;;;;;;;10.53;3.92;;;;;;;19.15;45.98;146964.38;1834715;77;22183;-67
2021/09/29 07:28:29;;;;;;;5.75;3.37;;;;;;;19.77;45.67;147115.94;1834971;77;22559;-70
2021/09/29 07:31:05;;;;;;;6.03;3.55;;;;;;;20.72;43.12;147351.02;1834923;77;22287;-67
2021/09/29 07:34:00;;;;;;;6.37;3.35;;;;;;;21.53;40.87;147550.81;1834931;77;22156;-69
2021/09/29 07:36:38;;;;;;;7.90;4.05;;;;;;;21.62;40.00;147573.56;1853668;77;22629;-61
2021/09/29 07:39:14;;;;;;;5.92;3.58;;;;;;;21.85;39.44;147631.77;1853594;77;22150;-69
2021/09/29 07:42:09;;;;;;;5.00;3.50;;;;;;;21.58;39.06;147563.47;1834943;77;22160;-67
2021/09/29 07:44:44;;;;;;;5.12;3.12;;;;;;;21.70;39.04;147593.78;1835124;77;22124;-58
2021/09/29 07:47:38;;;;;;;4.92;3.08;;;;;;;21.70;38.67;147592.53;1834923;77;22134;-70
2021/09/29 07:50:16;;;;;;;5.95;3.15;;;;;;;21.78;38.34;147612.75;1853543;77;22582;-66
2021/09/29 07:53:21;;;;;;;5.15;2.80;;;;;;;20.10;40.43;147199.34;1853438;77;22211;-71
2021/09/29 07:55:56;;;;;;;4.95;2.40;;;;;;;19.96;40.49;147163.97;1834993;77;22169;-65
2021/09/29 07:58:30;;;;;;;7.53;2.90;;;;;;;19.76;40.93;147113.44;1853564;77;20209;-64
2021/09/29 08:01:06;;;;;;;6.50;3.00;;;;;;;19.95;40.61;147162.70;1853577;77;22188;-71
2021/09/29 08:04:05;;;;;;;5.58;3.22;;;;;;;20.27;40.53;147239.75;1834178;77;22188;-65
2021/09/29 08:07:00;;;;;;;7.40;3.00;;;;;;;20.75;39.95;147358.59;1834704;77;22180;-68
2021/09/29 08:09:35;;;;;;;5.67;2.90;;;;;;;21.24;39.54;147479.94;1853533;77;22159;-65
2021/09/29 08:12:30;;;;;;;4.47;2.72;;;;;;;20.24;39.95;147233.44;1834773;77;22243;-72
2021/09/29 08:15:12;;;;;;;5.00;2.65;;;;;;;18.90;41.83;146902.52;1834993;77;22295;-72
2021/09/29 08:18:03;;;;;;;4.12;2.22;;;;;;;18.16;43.12;146719.50;1845032;77;22234;-68
2021/09/29 08:20:57;;;;;;;7.37;2.22;;;;;;;17.39;44.41;146529.03;1835450;77;22156;-65
2021/09/29 08:23:36;;;;;;;6.70;2.20;;;;;;;17.64;44.67;146590.81;1854205;77;22151;-68
2021/09/29 08:26:39;;;;;;;9.30;2.67;;;;;;;17.53;44.29;146565.61;1834969;77;22132;-64
2021/09/29 08:32:14;;;;;;;10.58;2.70;;;;;;;16.42;46.73;146290.77;1834758;77;22177;-70
2021/09/29 08:35:10;;;;;;;8.20;2.92;;;;;;;16.73;46.00;146366.37;1834730;77;22598;-62
2021/09/29 08:46:22;;;;;;;6.67;2.58;;;;;;;14.48;49.56;145813.52;1853683;77;22258;-63
2021/09/29 08:49:32;;;;;;;6.62;2.30;;;;;;;14.02;50.94;145700.31;1853861;77;22190;-69
2021/09/29 08:52:28;;;;;;;6.42;2.52;;;;;;;13.82;51.20;145651.27;1853552;77;22119;-65
2021/09/29 09:15:56;;;;;;;7.15;2.80;;;;;;;12.61;54.95;145354.56;1835144;77;22124;-60
2021/09/29 09:18:51;;;;;;;3.80;2.25;;;;;;;12.76;55.43;145391.02;1834941;77;22137;-64
2021/09/29 09:22:00;;;;;;;4.42;2.22;;;;;;;12.96;54.72;145441.28;1834975;77;22136;-62
2021/09/29 09:25:10;;;;;;;5.78;3.27;;;;;;;12.61;55.79;145354.56;1837937;77;22620;-67
2021/09/29 09:27:49;;;;;;;7.53;2.95;;;;;;;12.38;56.18;145299.30;1834991;77;22121;-57
2021/09/29 09:30:44;;;;;;;5.10;2.40;;;;;;;12.33;56.37;145285.48;1835015;77;22125;-64
2021/09/29 09:33:54;;;;;;;5.30;2.60;;;;;;;12.40;56.47;145301.83;1853483;77;22131;-64
2021/09/29 09:36:40;;;;;;;10.65;2.60;;;;;;;12.71;54.89;145379.69;1834934;77;22152;-69
2021/09/29 09:39:37;;;;;;;6.12;2.87;;;;;;;12.86;54.25;145414.89;1819368;77;28413;-63
2021/09/29 09:42:41;;;;;;;4.65;2.30;;;;;;;12.85;54.21;145412.34;1853523;77;22201;-67
2021/09/29 09:48:29;;;;;;;4.97;2.60;;;;;;;12.26;56.05;145269.19;1834990;77;22128;-67
2021/09/29 09:51:15;;;;;;;4.55;2.60;;;;;;;12.10;55.87;145228.97;1819409;77;27990;-71
2021/09/29 09:54:40;;;;;;;6.12;2.47;;;;;;;12.07;55.66;145222.70;1843117;77;22639;-65
2021/09/29 09:57:20;;;;;;;4.40;2.50;;;;;;;12.15;55.48;145241.53;1853580;77;22543;-60
2021/09/29 09:59:55;;;;;;;5.65;2.62;;;;;;;12.27;55.21;145271.69;1835059;77;22156;-63
2021/09/29 10:02:41;;;;;;;5.47;2.77;;;;;;;12.34;54.84;145289.28;1835127;77;22169;-70
2021/09/29 10:05:31;;;;;;;4.12;2.10;;;;;;;12.33;54.33;145286.73;1853641;77;22132;-56
2021/09/29 10:08:08;;;;;;;7.67;2.47;;;;;;;12.31;53.42;145280.45;1835052;77;20095;-66
2021/09/29 10:11:15;;;;;;;4.60;2.30;;;;;;;12.34;54.29;145288.03;1834253;77;22182;-68
2021/09/29 10:26:15;;;;;;;4.92;2.55;;;;;;;12.32;55.91;145284.25;1835010;77;22152;-64
2021/09/29 10:29:09;;;;;;;7.10;2.80;;;;;;;12.22;55.87;145259.13;1819307;77;29900;-72
2021/09/29 10:32:00;;;;;;;5.30;2.90;;;;;;;12.23;55.91;145261.63;1834975;77;22152;-65
2021/09/29 10:35:25;;;;;;;7.70;3.00;;;;;;;12.24;55.90;145264.16;1834976;77;22555;-70
2021/09/29 10:44:04;;;;;;;5.87;3.65;;;;;;;12.11;56.68;145232.77;1834999;77;22136;-63
2021/09/29 11:11:05;;;;;;;5.90;3.70;;;;;;;12.03;58.90;145211.39;1835007;77;22137;-67
2021/09/29 11:28:52;;;;;;;10.85;4.30;;;;;;;11.66;60.15;145122.22;1853568;77;22131;-68
2021/09/29 11:31:33;;;;;;;11.18;4.92;;;;;;;11.57;60.80;145099.59;1834982;77;22128;-68
2021/09/29 11:48:33;;;;;;;10.15;4.28;;;;;;;11.78;60.45;145151.09;1834118;77;22171;-62
2021/09/29 12:10:10;;;;;;;8.40;4.92;;;;;;;11.66;61.52;145120.97;1835075;77;22551;-62
2021/09/29 12:13:07;;;;;;;7.50;4.65;;;;;;;11.71;61.78;145133.52;1831064;77;22226;-64
2021/09/29 12:15:45;;;;;;;14.87;5.55;;;;;;;11.61;62.15;145108.41;1834972;77;22124;-68
2021/09/29 12:18:40;;;;;;;8.98;4.78;;;;;;;11.52;62.57;145087.05;1834954;77;22140;-68
2021/09/29 12:24:43;;;;;;;8.30;5.30;;;;;;;11.36;63.16;145048.16;1834980;77;22132;-71
2021/09/29 12:36:13;;;;;;;9.88;5.37;;;;;;;12.36;62.05;145294.31;1853500;77;22135;-64
2021/09/29 12:38:51;;;;;;;9.55;5.25;;;;;;;12.50;60.51;145326.95;1853568;77;22123;-71
2021/09/29 12:41:23;;;;;;;9.10;5.72;;;;;;;12.43;60.43;145310.61;1834984;77;22568;-65
2021/09/29 12:44:13;;;;;;;9.85;4.20;;;;;;;12.57;60.08;145344.56;1835025;77;20457;-66
2021/09/29 12:47:10;;;;;;;10.20;4.92;;;;;;;12.54;59.95;145338.27;1834983;77;22128;-64
2021/09/29 12:49:45;;;;;;;10.60;5.05;;;;;;;12.42;60.12;145306.88;1834997;77;22125;-65
2021/09/29 12:52:50;;;;;;;13.05;6.08;;;;;;;12.42;60.46;145308.11;1819235;77;28096;-63
2021/09/29 12:55:33;;;;;;;10.30;4.97;;;;;;;12.40;60.40;145303.08;1834877;77;22124;-63
2021/09/29 12:58:01;;;;;;;10.78;5.75;;;;;;;12.38;60.61;145298.05;1834976;77;22241;-69
2021/09/29 13:00:36;;;;;;;12.33;5.67;;;;;;;12.31;60.79;145281.75;1835004;77;22137;-66
2021/09/29 13:03:17;;;;;;;12.75;7.30;;;;;;;12.06;61.72;145220.20;1834198;77;22569;-62
2021/09/29 13:05:52;;;;;;;10.95;5.67;;;;;;;12.02;61.91;145208.89;1835058;77;22128;-61
2021/09/29 13:08:28;;;;;;;11.25;5.20;;;;;;;11.98;61.75;145198.83;1834971;77;22153;-69
2021/09/29 13:11:03;;;;;;;10.10;5.70;;;;;;;11.93;62.11;145188.81;1819402;77;28405;-60
2021/09/29 13:13:57;;;;;;;11.97;5.40;;;;;;;11.91;62.49;145183.78;1834938;77;22213;-64
2021/09/29 13:16:32;;;;;;;10.55;5.70;;;;;;;11.85;62.95;145168.64;1853561;77;22580;-70
2021/09/29 13:19:18;;;;;;;8.08;5.17;;;;;;;11.67;63.63;145123.45;1834902;77;22121;-67
2021/09/29 13:22:16;;;;;;;10.65;4.90;;;;;;;11.61;64.09;145108.41;1834988;77;22124;-63
2021/09/29 13:25:21;;;;;;;13.00;5.70;;;;;;;11.61;64.38;145108.41;1853568;77;22151;-61
2021/09/29 13:36:41;;;;;;;14.40;6.15;;;;;;;11.80;64.43;145156.09;1835005;77;22551;-65
2021/09/29 13:39:35;;;;;;;9.08;5.47;;;;;;;11.68;64.96;145127.25;1834889;77;22210;-71
2021/09/29 13:42:29;;;;;;;10.48;6.58;;;;;;;11.59;64.92;145103.38;1834936;77;22136;-63
2021/09/29 13:45:23;;;;;;;12.07;5.37;;;;;;;11.59;65.18;145103.38;1834965;77;22167;-59
2021/09/29 13:47:58;;;;;;;18.70;8.58;;;;;;;11.62;65.18;145110.91;1835004;77;22128;-67
2021/09/29 13:50:33;;;;;;;15.25;6.30;;;;;;;11.60;64.92;145105.88;1834975;77;22124;-63
2021/09/29 13:53:10;;;;;;;9.40;6.17;;;;;;;11.50;65.22;145083.31;1834925;77;22583;-71
2021/09/29 13:55:46;;;;;;;9.98;6.25;;;;;;;11.45;65.53;145070.75;1834945;77;22152;-69
2021/09/29 14:02:04;;;;;;;11.85;6.00;;;;;;;11.36;66.04;145048.16;1835049;77;22128;-62
2021/09/29 14:30:48;;;;;;;11.40;6.10;;;;;;;10.98;68.67;144955.28;1853610;77;22119;-62
2021/09/29 14:33:45;;;;;;;16.20;7.60;;;;;;;10.94;69.02;144945.28;1819240;77;27970;-67
2021/09/29 14:36:17;;;;;;;13.32;6.85;;;;;;;10.98;69.21;144954.05;1853464;77;22575;-67
2021/09/29 14:38:58;;;;;;;14.20;6.72;;;;;;;10.94;69.28;144943.98;1853553;77;22131;-59
2021/09/29 14:41:33;;;;;;;11.83;6.58;;;;;;;10.92;69.52;144939.00;1834990;77;22136;-65
2021/09/29 14:44:08;;;;;;;18.30;6.87;;;;;;;10.89;69.67;144931.44;1853510;77;22546;-60
2021/09/29 14:46:43;;;;;;;14.70;7.50;;;;;;;10.84;70.01;144920.19;1834975;77;22128;-63
2021/09/29 14:49:18;;;;;;;13.13;6.22;;;;;;;10.81;70.15;144912.63;1834978;77;22148;-64
2021/09/29 14:51:58;;;;;;;14.13;6.60;;;;;;;10.78;70.04;144905.11;1853631;77;22641;-66
2021/09/29 14:54:32;;;;;;;10.40;6.90;;;;;;;10.72;70.35;144891.31;1853541;77;22123;-65
2021/09/29 14:57:26;;;;;;;14.80;7.30;;;;;;;10.69;70.33;144882.56;1834974;77;23695;-60
2021/09/29 15:00:20;;;;;;;11.83;7.78;;;;;;;10.63;70.81;144870.02;1853488;77;22550;-60
2021/09/29 15:02:55;;;;;;;14.25;7.22;;;;;;;10.60;71.01;144861.20;1835003;77;22136;-68
2021/09/29 15:05:30;;;;;;;12.45;7.50;;;;;;;10.54;71.19;144847.42;1819420;77;27978;-69
2021/09/29 15:08:06;;;;;;;10.75;7.60;;;;;;;10.54;71.49;144847.42;1835022;77;22128;-67
2021/09/29 15:10:41;;;;;;;14.65;7.70;;;;;;;10.52;71.67;144842.39;1835016;77;20096;-66
2021/09/29 15:19:48;;;;;;;12.25;7.47;;;;;;;10.41;72.12;144816.06;1834987;77;22124;-64
2021/09/29 15:22:35;;;;;;;13.13;8.15;;;;;;;10.36;72.40;144802.28;1819439;77;28000;-67
2021/09/29 15:30:59;;;;;;;12.88;7.87;;;;;;;10.20;73.24;144764.62;1834995;77;22129;-69
2021/09/29 15:48:23;;;;;;;14.60;8.35;;;;;;;9.92;75.44;144694.38;1853781;77;22594;-58
2021/09/29 15:51:23;;;;;;;14.03;8.58;;;;;;;9.91;75.59;144691.89;1835451;77;22133;-61
2021/09/29 16:02:45;;;;;;;12.75;8.40;;;;;;;9.88;76.42;144685.63;1853570;77;20210;-60
2021/09/29 16:05:47;;;;;;;14.65;8.45;;;;;;;9.85;76.77;144678.11;1835030;77;22128;-64
2021/09/29 16:23:18;;;;;;;14.80;9.13;;;;;;;9.70;77.34;144641.75;1853557;77;22151;-65
2021/09/29 16:31:42;;;;;;;16.93;9.05;;;;;;;9.59;77.58;144614.16;1835033;77;22157;-61
2021/09/29 16:37:21;;;;;;;16.55;9.10;;;;;;;9.49;77.92;144589.09;1853647;77;22124;-62
2021/09/29 16:40:19;;;;;;;13.93;8.20;;;;;;;9.46;78.26;144582.83;1835069;77;22129;-62
2021/09/29 16:43:17;;;;;;;16.42;9.15;;;;;;;9.45;78.16;144579.09;1834996;77;22144;-65
2021/09/29 16:45:51;;;;;;;18.98;8.53;;;;;;;9.43;78.22;144574.06;1834966;77;22194;-65
2021/09/29 16:48:28;;;;;;;14.68;8.63;;;;;;;9.39;78.59;144564.03;1834991;77;22128;-71